Terminal Aerodrome Forecast
Issued by NWS Sioux Falls, SD

Home | Current Version | Previous Version | Graphics & Text | Print | Product List | Glossary On
Versions: 1 2 3 4 5 6 7 8 9 10 11 12 13 14 15 16 17 18 19 20 21 22 23 24 25 26 27 28 29 30 31 32 33 34
000
FTUS43 KFSD 241655 AAA
TAFSUX
TAF AMD
KSUX 241655Z 2417/2512 17013G20KT P6SM SCT025
     FM242000 16014G20KT P6SM BKN020
     FM250000 13010KT P6SM OVC015
     FM250400 09009KT 6SM -SHRA OVC012
     FM250700 05010KT 3SM RA BR OVC008=

USA.gov is the U.S. government's official web portal to all federal, state and local government web resources and services.